Time;durP1;ratioP1;P1;durP2;ratioP2;P2;SDS_P1;SDS_P2;PMS_P1;PMS_P2;Temp;Humidity;BMP_temperature;BMP_pressure;BME280_temperature;BME280_humidity;BME280_pressure;Samples;Min_cycle;Max_cycle;Signal;HPM_P1;HPM_P2
2021/09/05 00:02:19;;;;;;;10.80;4.70;;;;;;;10.45;79.60;101454.80;1628149;86;26250;-81
2021/09/05 00:04:46;;;;;;;9.70;5.05;;;;;;;10.44;80.17;101453.59;1649501;86;26281;-81
2021/09/05 00:07:13;;;;;;;11.78;4.97;;;;;;;10.40;80.32;101459.80;1586767;86;25981;-81
2021/09/05 00:09:43;;;;;;;9.23;5.03;;;;;;;10.37;80.36;101462.80;1601709;86;25806;-81
2021/09/05 00:12:10;;;;;;;11.15;5.90;;;;;;;10.34;80.35;101454.27;1646510;86;27578;-81
2021/09/05 00:14:38;;;;;;;8.50;4.53;;;;;;;10.35;80.51;101454.08;1630339;86;25940;-81
2021/09/05 00:17:05;;;;;;;10.55;4.92;;;;;;;10.37;80.58;101454.76;1606433;86;25791;-81
2021/09/05 00:19:31;;;;;;;11.55;4.80;;;;;;;10.37;80.48;101460.11;1607668;86;26696;-81
2021/09/05 00:21:59;;;;;;;7.65;5.03;;;;;;;10.35;80.50;101463.45;1624132;86;25966;-81
2021/09/05 00:24:26;;;;;;;9.25;4.92;;;;;;;10.35;80.85;101463.98;1647065;86;27588;-81
2021/09/05 00:26:53;;;;;;;9.03;4.62;;;;;;;10.33;80.56;101466.80;1607635;86;25933;-81
2021/09/05 00:29:20;;;;;;;9.18;5.22;;;;;;;10.32;80.68;101471.84;1623687;86;25897;-81
2021/09/05 00:31:47;;;;;;;8.20;5.17;;;;;;;10.30;80.59;101473.00;1626322;86;26731;-80
2021/09/05 00:34:14;;;;;;;9.65;5.40;;;;;;;10.30;80.90;101472.51;1630515;86;25866;-81
2021/09/05 00:36:42;;;;;;;7.53;4.67;;;;;;;10.29;80.81;101480.19;1592922;88;27399;-81
2021/09/05 00:39:09;;;;;;;10.95;5.20;;;;;;;10.29;80.69;101482.86;1621228;86;26134;-81
2021/09/05 00:41:37;;;;;;;9.08;4.40;;;;;;;10.28;80.52;101486.56;1621545;86;26508;-80
2021/09/05 00:44:06;;;;;;;10.13;4.90;;;;;;;10.27;80.59;101495.58;1601750;86;25937;-81
2021/09/05 00:46:37;;;;;;;9.13;5.20;;;;;;;10.25;80.58;101489.55;1602825;86;26460;-81
2021/09/05 00:49:06;;;;;;;8.75;4.83;;;;;;;10.25;80.46;101492.23;1620805;86;27519;-81
2021/09/05 00:51:42;;;;;;;10.20;4.70;;;;;;;10.22;80.36;101491.23;1640923;86;26445;-81
2021/09/05 00:54:16;;;;;;;10.15;4.70;;;;;;;10.20;80.42;101502.58;1634846;86;25969;-81
2021/09/05 00:56:44;;;;;;;9.15;4.92;;;;;;;10.19;80.38;101502.75;1577368;87;25893;-81
2021/09/05 00:59:17;;;;;;;8.43;4.58;;;;;;;10.18;80.32;101499.75;1597540;86;25810;-80
2021/09/05 01:01:45;;;;;;;7.60;4.62;;;;;;;10.18;80.38;101503.77;1618563;87;27492;-80
2021/09/05 01:04:14;;;;;;;7.60;4.42;;;;;;;10.17;80.11;101496.23;1638303;86;26218;-81
2021/09/05 01:06:43;;;;;;;8.38;4.37;;;;;;;10.15;79.73;101503.58;1600564;87;25402;-81
2021/09/05 01:09:11;;;;;;;8.38;4.58;;;;;;;10.12;79.47;101503.89;1622341;86;25828;-81
2021/09/05 01:11:40;;;;;;;10.63;5.08;;;;;;;10.11;79.44;101502.23;1621056;86;25880;-80
2021/09/05 01:14:09;;;;;;;11.18;5.35;;;;;;;10.13;79.45;101500.23;1640708;86;27529;-81
2021/09/05 01:16:42;;;;;;;6.40;4.53;;;;;;;10.12;79.43;101501.22;1603407;86;26657;-81
2021/09/05 01:19:27;;;;;;;8.18;4.22;;;;;;;10.12;79.46;101498.54;1621207;86;26053;-81
2021/09/05 01:22:13;;;;;;;6.37;4.12;;;;;;;10.09;79.42;101490.81;1623954;86;25964;-81
2021/09/05 01:24:49;;;;;;;7.00;4.35;;;;;;;10.07;79.66;101499.52;1637935;86;25746;-81
2021/09/05 01:27:18;;;;;;;6.50;4.33;;;;;;;10.02;79.76;101507.18;1592569;87;27247;-81
2021/09/05 01:29:49;;;;;;;9.88;4.83;;;;;;;9.97;79.72;101513.01;1594470;86;26063;-81
2021/09/05 01:32:35;;;;;;;9.73;4.53;;;;;;;9.94;79.70;101517.86;1624833;86;26608;-81
2021/09/05 01:35:13;;;;;;;7.53;4.53;;;;;;;9.89;79.82;101513.47;1636541;86;25930;-81
2021/09/05 01:37:44;;;;;;;8.75;4.78;;;;;;;9.84;79.99;101509.94;1597744;86;25425;-80
2021/09/05 01:40:20;;;;;;;9.05;4.37;;;;;;;9.85;79.94;101508.10;1624479;86;27566;-81
2021/09/05 01:43:06;;;;;;;9.50;4.42;;;;;;;9.84;79.66;101512.61;1630116;86;26599;-80
2021/09/05 01:45:53;;;;;;;7.17;4.22;;;;;;;9.85;79.79;101512.97;1600916;88;25863;-80
2021/09/05 01:48:22;;;;;;;10.58;4.62;;;;;;;9.85;79.86;101521.48;1598968;88;26235;-81
2021/09/05 01:51:08;;;;;;;11.22;4.67;;;;;;;9.83;79.63;101522.14;1579113;87;25878;-81
2021/09/05 01:53:53;;;;;;;6.72;4.12;;;;;;;9.76;79.34;101524.61;1626936;86;28860;-80
2021/09/05 01:56:38;;;;;;;6.87;3.72;;;;;;;9.71;79.17;101529.59;1654254;86;25827;-81
2021/09/05 01:59:24;;;;;;;5.75;4.00;;;;;;;9.64;79.07;101525.89;1624223;87;25885;-82
2021/09/05 02:01:55;;;;;;;8.95;4.37;;;;;;;9.58;78.93;101524.34;1567264;89;26816;-81
2021/09/05 02:04:25;;;;;;;5.97;3.98;;;;;;;9.54;78.91;101531.02;1620328;86;26011;-81
2021/09/05 02:07:06;;;;;;;6.33;3.50;;;;;;;9.52;78.91;101534.31;1639677;86;27779;-81
2021/09/05 02:09:35;;;;;;;5.72;3.83;;;;;;;9.50;79.12;101532.30;1597206;86;25999;-81
2021/09/05 02:12:21;;;;;;;8.98;4.12;;;;;;;9.50;79.28;101533.62;1602898;86;25848;-80
2021/09/05 02:14:53;;;;;;;8.30;4.25;;;;;;;9.52;79.44;101531.64;1620786;86;26059;-80
2021/09/05 02:17:41;;;;;;;8.25;4.33;;;;;;;9.49;79.14;101535.49;1617522;86;47418;-81
2021/09/05 02:20:11;;;;;;;7.50;3.95;;;;;;;9.46;78.92;101534.94;1620738;86;28203;-80
2021/09/05 02:22:58;;;;;;;7.80;4.05;;;;;;;9.42;78.80;101534.43;1625049;86;25864;-81
2021/09/05 02:25:27;;;;;;;6.05;4.00;;;;;;;9.38;78.65;101545.09;1601863;87;26034;-80
2021/09/05 02:28:13;;;;;;;4.65;3.45;;;;;;;9.32;78.52;101547.06;1634484;86;26473;-81
2021/09/05 02:30:59;;;;;;;8.03;4.62;;;;;;;9.26;78.88;101559.20;1621917;86;25819;-80
2021/09/05 02:33:37;;;;;;;5.83;3.60;;;;;;;9.22;78.67;101547.62;1601353;86;27634;-80
2021/09/05 02:36:17;;;;;;;;;;;;;;;9.17;78.36;101553.44;1623163;87;26406;-80
2021/09/05 02:38:52;;;;;;;5.33;3.92;;;;;;;9.06;78.16;101562.20;1642849;86;25890;-81
2021/09/05 02:41:20;;;;;;;5.70;3.37;;;;;;;8.96;78.29;101571.63;1624810;86;25864;-80
2021/09/05 02:43:58;;;;;;;5.15;3.47;;;;;;;8.92;78.38;101572.08;1609964;86;26101;-81
2021/09/05 02:46:36;;;;;;;5.47;3.42;;;;;;;8.86;78.25;101560.19;1610838;86;28343;-81
2021/09/05 02:49:11;;;;;;;9.93;5.08;;;;;;;8.80;78.35;101567.47;1650330;86;26233;-80
2021/09/05 02:51:57;;;;;;;19.95;8.88;;;;;;;8.77;78.36;101569.10;1624316;87;26186;-81
2021/09/05 02:54:26;;;;;;;15.35;6.95;;;;;;;8.74;78.31;101573.91;1633688;86;26022;-81
2021/09/05 02:57:10;;;;;;;19.57;8.40;;;;;;;8.70;78.19;101570.72;1631622;86;25820;-80
2021/09/05 02:59:50;;;;;;;17.32;7.92;;;;;;;8.65;78.30;101570.32;1630054;86;27565;-80
2021/09/05 03:02:37;;;;;;;16.77;7.28;;;;;;;8.62;78.15;101569.80;1607333;86;25934;-81
2021/09/05 03:05:21;;;;;;;9.85;6.22;;;;;;;8.60;78.37;101580.60;1561470;88;26034;-81
2021/09/05 03:08:05;;;;;;;6.75;4.12;;;;;;;8.55;78.53;101577.05;1618202;86;26653;-81
2021/09/05 03:10:46;;;;;;;;;;;;;;;8.54;78.63;101583.39;1627538;86;25720;-80
2021/09/05 03:13:31;;;;;;;6.10;3.80;;;;;;;8.54;78.77;101580.72;1622763;87;28175;-81
2021/09/05 03:16:16;;;;;;;7.08;4.00;;;;;;;8.52;78.82;101583.19;1628532;86;26039;-80
2021/09/05 03:19:00;;;;;;;5.87;4.10;;;;;;;8.54;79.36;101582.55;1643574;86;25874;-82
2021/09/05 03:21:29;;;;;;;5.92;3.72;;;;;;;8.57;79.66;101588.09;1607122;86;25965;-80
2021/09/05 03:24:05;;;;;;;5.35;3.67;;;;;;;8.59;79.54;101582.09;1605789;86;26046;-81
2021/09/05 03:26:35;;;;;;;5.60;4.10;;;;;;;8.58;79.66;101582.58;1615794;86;27773;-80
2021/09/05 03:29:07;;;;;;;7.30;4.08;;;;;;;8.60;80.01;101581.94;1632367;86;26157;-81
2021/09/05 03:31:36;;;;;;;6.97;3.85;;;;;;;8.56;80.11;101580.56;1607955;86;26014;-81
2021/09/05 03:34:16;;;;;;;;;;;;;;;8.57;80.41;101584.08;1624557;87;25934;-81
2021/09/05 03:36:53;;;;;;;6.47;4.47;;;;;;;8.55;80.65;101585.05;1617835;86;25945;-80
2021/09/05 03:39:27;;;;;;;7.58;4.10;;;;;;;8.51;80.59;101582.86;1628243;86;27659;-81
2021/09/05 03:42:03;;;;;;;6.83;3.80;;;;;;;8.51;80.74;101593.55;1599827;86;25978;-80
2021/09/05 03:44:31;;;;;;;7.05;3.95;;;;;;;8.48;80.58;101592.48;1611145;86;26222;-80
2021/09/05 03:47:15;;;;;;;4.95;3.27;;;;;;;8.44;80.59;101593.78;1628751;86;25910;-81
2021/09/05 03:49:53;;;;;;;4.60;3.52;;;;;;;8.40;80.43;101599.08;1605375;88;25385;-80
2021/09/05 03:52:21;;;;;;;6.22;3.47;;;;;;;8.37;80.35;101601.55;1586457;87;27520;-80
2021/09/05 03:54:48;;;;;;;5.05;3.42;;;;;;;8.37;80.43;101606.03;1605955;86;26314;-81
2021/09/05 03:57:15;;;;;;;7.40;3.50;;;;;;;8.36;80.66;101599.84;1625606;86;25982;-80
2021/09/05 03:59:43;;;;;;;6.42;3.85;;;;;;;8.39;80.78;101606.23;1607827;86;25830;-81
2021/09/05 04:02:11;;;;;;;6.53;3.50;;;;;;;8.44;81.04;101606.64;1606453;86;25909;-81
2021/09/05 04:04:38;;;;;;;4.62;3.50;;;;;;;8.48;81.16;101607.17;1605284;86;27414;-81
2021/09/05 04:07:09;;;;;;;5.22;3.75;;;;;;;8.48;81.28;101601.84;1650254;86;25692;-80
2021/09/05 04:12:20;;;;;;;7.05;3.85;;;;;;;8.57;81.88;101617.46;1628054;86;25933;-80
2021/09/05 04:14:47;;;;;;;8.40;3.85;;;;;;;8.60;82.18;101619.84;1609811;86;25909;-81
2021/09/05 04:17:14;;;;;;;6.33;3.90;;;;;;;8.62;82.41;101621.88;1648635;86;27508;-80
2021/09/05 04:19:41;;;;;;;7.42;4.25;;;;;;;8.63;82.75;101623.53;1610306;86;26367;-81
2021/09/05 04:22:08;;;;;;;8.10;4.05;;;;;;;8.65;83.00;101624.23;1605231;87;25938;-81
2021/09/05 04:24:35;;;;;;;6.05;3.67;;;;;;;8.68;83.21;101631.95;1605124;86;26511;-80
2021/09/05 04:27:03;;;;;;;9.30;4.15;;;;;;;8.69;83.38;101633.61;1650529;86;26451;-80
2021/09/05 04:29:30;;;;;;;8.48;4.05;;;;;;;8.71;83.56;101635.64;1606408;87;27522;-81
2021/09/05 04:31:57;;;;;;;7.97;4.03;;;;;;;8.72;83.86;101646.69;1620638;87;26208;-80
2021/09/05 04:34:24;;;;;;;8.08;4.83;;;;;;;8.75;83.83;101651.71;1603596;86;26544;-81
2021/09/05 04:36:51;;;;;;;6.70;3.90;;;;;;;8.78;84.01;101644.75;1630489;86;25879;-80
2021/09/05 04:39:18;;;;;;;5.50;3.98;;;;;;;8.79;84.12;101645.92;1608248;86;25417;-80
2021/09/05 04:41:46;;;;;;;10.28;4.37;;;;;;;8.81;84.12;101651.95;1625687;86;27552;-80
2021/09/05 04:44:13;;;;;;;6.10;3.72;;;;;;;8.85;84.19;101649.84;1582861;87;26546;-80
2021/09/05 04:46:40;;;;;;;5.72;3.77;;;;;;;8.89;84.08;101653.41;1604944;86;25950;-80
2021/09/05 04:49:07;;;;;;;5.20;3.45;;;;;;;8.93;84.10;101654.78;1606439;86;26469;-81
2021/09/05 04:51:34;;;;;;;6.80;3.77;;;;;;;8.97;84.08;101652.16;1603486;87;25886;-81
2021/09/05 04:54:01;;;;;;;7.15;3.52;;;;;;;9.00;84.15;101651.83;1607095;86;27365;-81
2021/09/05 04:56:28;;;;;;;9.20;3.90;;;;;;;9.03;84.12;101658.71;1654048;86;25841;-81
2021/09/05 04:58:55;;;;;;;6.62;3.87;;;;;;;9.04;84.12;101655.91;1610163;86;26368;-82
2021/09/05 05:01:22;;;;;;;7.55;3.80;;;;;;;9.03;84.29;101664.91;1606677;86;25785;-83
2021/09/05 05:03:49;;;;;;;5.70;3.60;;;;;;;9.03;84.25;101662.23;1602333;86;25923;-83
2021/09/05 05:06:17;;;;;;;4.30;3.47;;;;;;;9.04;84.43;101667.94;1632048;86;27694;-82
2021/09/05 05:08:44;;;;;;;5.87;3.50;;;;;;;9.07;84.54;101670.29;1608266;86;25950;-83
2021/09/05 05:11:16;;;;;;;6.85;4.20;;;;;;;9.08;84.50;101672.47;1625304;86;25838;-83
2021/09/05 05:13:44;;;;;;;5.78;3.45;;;;;;;9.08;84.42;101671.98;1609808;86;25953;-81
2021/09/05 05:16:11;;;;;;;4.47;3.52;;;;;;;9.09;84.41;101672.80;1649923;86;25879;-82
2021/09/05 05:18:38;;;;;;;5.33;3.12;;;;;;;9.10;84.48;101674.02;1626666;87;27121;-81
2021/09/05 05:21:05;;;;;;;6.53;3.15;;;;;;;9.13;84.49;101677.70;1600713;86;25341;-81
2021/09/05 05:23:32;;;;;;;5.45;2.90;;;;;;;9.17;84.76;101683.61;1607758;86;25900;-81
2021/09/05 05:26:00;;;;;;;4.95;3.30;;;;;;;9.18;84.71;101687.45;1647259;86;25860;-81
2021/09/05 05:28:27;;;;;;;3.98;2.95;;;;;;;9.19;84.95;101691.82;1601166;86;25901;-81
2021/09/05 05:30:54;;;;;;;5.17;3.10;;;;;;;9.25;85.09;101686.35;1604405;87;27559;-81
2021/09/05 05:33:21;;;;;;;5.70;3.35;;;;;;;9.29;85.10;101692.58;1604346;87;26560;-81
2021/09/05 05:35:48;;;;;;;4.10;2.77;;;;;;;9.36;85.07;101695.49;1650017;86;25926;-80
2021/09/05 05:38:15;;;;;;;5.62;3.10;;;;;;;9.41;85.12;101692.36;1621320;87;26563;-81
2021/09/05 05:40:42;;;;;;;6.47;2.55;;;;;;;9.47;85.44;101690.41;1600554;86;26030;-81
2021/09/05 05:43:09;;;;;;;5.47;2.92;;;;;;;9.56;85.11;101698.34;1606089;86;27593;-80
2021/09/05 05:45:37;;;;;;;4.37;2.77;;;;;;;9.65;85.22;101695.23;1646090;86;25378;-80
2021/09/05 05:48:04;;;;;;;5.15;2.45;;;;;;;9.74;85.33;101699.19;1630271;86;25878;-80
2021/09/05 05:50:31;;;;;;;6.50;3.20;;;;;;;9.84;84.96;101703.94;1624830;86;25867;-81
2021/09/05 05:52:58;;;;;;;3.65;2.60;;;;;;;9.94;84.94;101701.19;1609321;86;25959;-80
2021/09/05 05:55:25;;;;;;;6.05;2.50;;;;;;;10.04;84.88;101704.59;1649747;86;27569;-81
2021/09/05 05:57:52;;;;;;;3.42;2.37;;;;;;;10.13;84.78;101705.53;1609171;86;25805;-81
2021/09/05 06:00:24;;;;;;;4.87;2.98;;;;;;;10.24;84.80;101709.29;1607563;86;25881;-80
2021/09/05 06:02:48;;;;;;;3.87;2.02;;;;;;;10.36;84.75;101712.88;1626063;86;25827;-82
2021/09/05 06:05:15;;;;;;;2.92;2.08;;;;;;;10.43;84.10;101709.92;1611859;88;25800;-80
2021/09/05 06:07:42;;;;;;;5.37;2.05;;;;;;;10.52;83.90;101717.50;1625307;86;27484;-81
2021/09/05 06:10:10;;;;;;;4.20;2.27;;;;;;;10.60;83.70;101713.03;1599111;86;27484;-80
2021/09/05 06:12:37;;;;;;;5.45;2.80;;;;;;;10.71;84.08;101714.58;1601934;87;25433;-80
2021/09/05 06:15:05;;;;;;;2.85;2.08;;;;;;;10.84;83.60;101719.00;1645386;86;26627;-81
2021/09/05 06:17:32;;;;;;;5.87;2.00;;;;;;;10.95;83.27;101720.02;1587017;86;26535;-82
2021/09/05 06:19:59;;;;;;;5.10;2.58;;;;;;;11.02;82.99;101724.23;1609433;86;27513;-80
2021/09/05 06:22:27;;;;;;;2.47;1.77;;;;;;;11.11;82.84;101724.61;1598409;86;25993;-81
2021/09/05 06:24:54;;;;;;;3.95;1.98;;;;;;;11.24;82.74;101729.02;1626929;86;26048;-81
2021/09/05 06:27:21;;;;;;;3.05;1.82;;;;;;;11.34;82.52;101733.23;1630356;86;25998;-81
2021/09/05 06:29:48;;;;;;;2.42;1.62;;;;;;;11.47;82.75;101736.77;1607080;86;25926;-81
2021/09/05 06:32:15;;;;;;;3.92;1.62;;;;;;;11.52;82.30;101732.61;1608616;86;27384;-81
2021/09/05 06:34:48;;;;;;;3.80;1.75;;;;;;;11.60;81.67;101739.81;1641812;86;26694;-81
2021/09/05 06:37:15;;;;;;;3.72;1.62;;;;;;;11.71;81.47;101738.19;1605532;86;25881;-81
2021/09/05 06:39:42;;;;;;;3.08;1.72;;;;;;;11.82;80.94;101740.55;1607810;86;26581;-81
2021/09/05 06:42:10;;;;;;;4.55;2.12;;;;;;;11.91;80.14;101742.21;1629766;87;25623;-80
2021/09/05 06:44:38;;;;;;;4.05;1.70;;;;;;;11.97;79.89;101751.45;1604548;86;27387;-81
2021/09/05 06:47:05;;;;;;;2.25;1.70;;;;;;;12.03;80.01;101746.26;1602858;87;26002;-81
2021/09/05 06:49:33;;;;;;;2.90;1.80;;;;;;;12.15;79.86;101748.08;1630116;86;25951;-80
2021/09/05 06:52:01;;;;;;;4.28;1.70;;;;;;;12.19;79.07;101752.11;1623498;86;26295;-81
2021/09/05 06:54:28;;;;;;;4.40;1.65;;;;;;;12.25;79.09;101754.95;1606250;86;26121;-80
2021/09/05 06:56:55;;;;;;;3.20;1.65;;;;;;;12.31;79.31;101752.95;1551209;89;27654;-81
2021/09/05 06:59:22;;;;;;;2.77;1.70;;;;;;;12.40;78.83;101759.97;1626303;86;25902;-81
2021/09/05 07:01:49;;;;;;;1.62;1.50;;;;;;;12.49;78.79;101764.02;1622254;87;25761;-81
2021/09/05 07:04:16;;;;;;;4.55;1.80;;;;;;;12.57;78.88;101762.64;1595632;87;25987;-81
2021/09/05 07:06:46;;;;;;;5.25;1.67;;;;;;;12.69;79.63;101766.64;1648297;86;25880;-81
2021/09/05 07:09:14;;;;;;;2.60;1.87;;;;;;;12.78;78.76;101765.61;1610197;86;28191;-81
2021/09/05 07:11:41;;;;;;;2.02;1.77;;;;;;;12.85;78.25;101769.30;1627101;86;25904;-81
2021/09/05 07:14:07;;;;;;;3.22;1.67;;;;;;;12.90;77.90;101770.44;1605172;86;25818;-81
2021/09/05 07:16:34;;;;;;;3.37;1.45;;;;;;;12.96;78.16;101769.74;1582190;86;25977;-80
2021/09/05 07:19:01;;;;;;;2.50;1.50;;;;;;;13.02;76.86;101768.23;1629221;86;26322;-81
2021/09/05 07:21:28;;;;;;;1.92;1.32;;;;;;;13.08;77.02;101763.52;1625818;86;27568;-81
2021/09/05 07:23:59;;;;;;;3.30;1.60;;;;;;;13.15;76.29;101771.23;1632978;86;25974;-80
2021/09/05 07:26:26;;;;;;;1.98;1.55;;;;;;;13.23;76.59;101770.34;1627412;87;26541;-81
2021/09/05 07:28:54;;;;;;;2.05;1.57;;;;;;;13.32;75.65;101761.22;1614619;87;26582;-81
2021/09/05 07:31:21;;;;;;;1.95;1.30;;;;;;;13.40;75.75;101771.94;1623439;86;25956;-80
2021/09/05 07:33:48;;;;;;;1.75;1.00;;;;;;;13.49;75.06;101774.42;1593345;87;27472;-81
2021/09/05 07:36:15;;;;;;;1.60;1.07;;;;;;;13.58;73.82;101778.72;1571239;88;25888;-81
2021/09/05 07:38:42;;;;;;;2.80;1.17;;;;;;;13.64;73.06;101780.69;1565702;90;25983;-80
2021/09/05 07:41:10;;;;;;;4.12;1.20;;;;;;;13.72;72.22;101783.86;1616726;88;26520;-80
2021/09/05 07:43:37;;;;;;;0.85;0.80;;;;;;;13.80;72.50;101786.48;1549546;89;25874;-81
2021/09/05 07:46:04;;;;;;;2.17;1.17;;;;;;;13.90;71.99;101789.77;1572979;90;27575;-80
2021/09/05 07:48:31;;;;;;;2.37;0.82;;;;;;;13.97;70.99;101789.90;1592499;88;25877;-81
2021/09/05 07:50:58;;;;;;;2.25;1.17;;;;;;;14.02;70.91;101788.36;1642991;86;26492;-81
2021/09/05 07:53:25;;;;;;;2.77;1.07;;;;;;;14.11;70.09;101790.48;1582336;86;25845;-81
2021/09/05 07:55:52;;;;;;;2.08;0.82;;;;;;;14.13;68.53;101794.67;1602985;86;25906;-81
2021/09/05 07:58:21;;;;;;;1.17;0.80;;;;;;;14.17;67.64;101789.75;1622460;87;27599;-81
2021/09/05 08:00:49;;;;;;;1.00;0.55;;;;;;;14.22;67.64;101798.95;1590261;89;25968;-80
2021/09/05 08:03:16;;;;;;;1.27;0.80;;;;;;;14.28;67.36;101796.91;1545558;90;25422;-81
2021/09/05 08:05:43;;;;;;;2.72;0.80;;;;;;;14.34;66.05;101802.09;1576010;89;26042;-80
2021/09/05 08:08:10;;;;;;;2.87;0.80;;;;;;;14.39;66.36;101805.91;1615482;86;25883;-80
2021/09/05 08:10:38;;;;;;;2.47;1.17;;;;;;;14.45;66.11;101809.75;1637855;86;28299;-80
2021/09/05 08:13:05;;;;;;;1.70;0.80;;;;;;;14.54;66.16;101804.62;1579898;86;25903;-80
2021/09/05 08:15:32;;;;;;;1.12;0.60;;;;;;;14.62;64.98;101808.58;1599575;86;25959;-80
2021/09/05 08:17:59;;;;;;;2.17;0.72;;;;;;;14.68;63.77;101805.14;1622563;87;26634;-80
2021/09/05 08:20:26;;;;;;;1.57;1.10;;;;;;;14.72;63.48;101805.59;1639546;86;26142;-81
2021/09/05 08:22:53;;;;;;;1.45;0.70;;;;;;;14.79;62.83;101807.89;1580283;86;26331;-80
2021/09/05 08:25:20;;;;;;;1.55;0.80;;;;;;;14.86;62.05;101815.58;1596306;86;25949;-81
2021/09/05 08:27:47;;;;;;;0.90;0.57;;;;;;;14.91;62.70;101812.64;1620990;87;25561;-81
2021/09/05 08:30:14;;;;;;;1.45;0.70;;;;;;;14.95;59.98;101811.78;1625548;86;25833;-80
2021/09/05 08:32:41;;;;;;;1.90;0.78;;;;;;;14.97;59.92;101819.17;1579885;86;25872;-81
2021/09/05 08:35:09;;;;;;;0.95;0.85;;;;;;;15.01;60.81;101815.89;1596992;86;27561;-81
2021/09/05 08:37:36;;;;;;;2.92;0.90;;;;;;;15.07;59.88;101819.22;1620737;87;26030;-80
2021/09/05 08:40:05;;;;;;;2.05;0.80;;;;;;;15.10;59.92;101814.78;1638730;86;25948;-81
2021/09/05 08:42:33;;;;;;;1.90;0.80;;;;;;;15.15;59.41;101812.87;1582090;86;25874;-81
2021/09/05 08:45:02;;;;;;;0.93;0.50;;;;;;;15.19;59.95;101817.72;1621145;86;25867;-80
2021/09/05 08:47:34;;;;;;;2.25;0.60;;;;;;;15.22;58.66;101818.70;1622293;86;27478;-81
2021/09/05 08:50:04;;;;;;;1.62;0.55;;;;;;;15.29;58.28;101820.95;1640318;86;26611;-81
2021/09/05 08:52:32;;;;;;;0.70;0.50;;;;;;;15.33;57.79;101826.30;1582143;86;25946;-81
2021/09/05 08:54:59;;;;;;;1.12;0.57;;;;;;;15.39;56.39;101820.17;1545071;89;26502;-81
2021/09/05 08:57:26;;;;;;;0.95;0.68;;;;;;;15.41;56.48;101820.82;1617591;86;25807;-81
2021/09/05 08:59:53;;;;;;;0.72;0.53;;;;;;;15.50;57.74;101824.80;1635609;86;28333;-81
2021/09/05 09:02:20;;;;;;;0.95;0.50;;;;;;;15.56;56.15;101826.73;1571603;87;25968;-81
2021/09/05 09:04:50;;;;;;;1.05;0.60;;;;;;;15.64;56.84;101829.31;1593345;88;26557;-81
2021/09/05 09:07:16;;;;;;;2.83;0.80;;;;;;;15.65;56.14;101824.25;1636681;86;25816;-81
2021/09/05 09:09:58;;;;;;;0.80;0.53;;;;;;;15.67;55.37;101823.55;1640565;86;25333;-81
2021/09/05 09:12:49;;;;;;;1.10;0.53;;;;;;;15.71;53.78;101826.19;1594197;86;27410;-81
2021/09/05 09:15:32;;;;;;;0.60;0.50;;;;;;;15.72;53.68;101826.48;1615164;87;25918;-81
2021/09/05 09:18:04;;;;;;;3.33;0.70;;;;;;;15.73;55.25;101822.27;1617596;86;26550;-81
2021/09/05 09:20:41;;;;;;;0.80;0.70;;;;;;;15.81;55.41;101828.90;1617461;86;26515;-81
2021/09/05 09:23:19;;;;;;;1.50;0.85;;;;;;;15.84;55.20;101819.58;1591434;86;26294;-81
2021/09/05 09:25:53;;;;;;;0.90;0.60;;;;;;;15.91;55.16;101819.95;1640739;86;27656;-81
2021/09/05 09:28:36;;;;;;;0.93;0.60;;;;;;;16.03;55.49;101823.00;1621459;86;26076;-81
2021/09/05 09:31:28;;;;;;;0.60;0.50;;;;;;;16.11;56.44;101825.06;1647245;85;26034;-81
2021/09/05 09:33:59;;;;;;;1.32;0.62;;;;;;;16.19;56.01;101811.41;1594451;86;25950;-81
2021/09/05 09:36:29;;;;;;;;;;;;;;;16.29;55.00;101812.95;1632861;86;25871;-81
2021/09/05 09:39:02;;;;;;;0.68;0.50;;;;;;;16.29;55.14;101819.20;1651719;86;27451;-80
2021/09/05 09:41:37;;;;;;;1.15;0.80;;;;;;;16.31;56.04;101813.09;1629925;86;26612;-80
2021/09/05 09:44:07;;;;;;;1.32;0.42;;;;;;;16.39;54.76;101818.34;1605478;86;25982;-81
2021/09/05 09:46:38;;;;;;;0.60;0.40;;;;;;;16.40;53.72;101815.95;1605084;86;26567;-80
2021/09/05 09:49:09;;;;;;;1.07;0.50;;;;;;;16.31;53.44;101810.89;1640497;86;25811;-80
2021/09/05 09:51:37;;;;;;;;;;;;;;;16.20;53.05;101810.39;1614100;87;28406;-81
2021/09/05 09:54:04;;;;;;;0.70;0.42;;;;;;;16.21;53.86;101808.50;1566299;88;26698;-81
2021/09/05 09:56:32;;;;;;;2.05;1.10;;;;;;;16.13;53.52;101812.19;1599970;88;25822;-80
2021/09/05 09:59:03;;;;;;;0.55;0.50;;;;;;;16.17;53.82;101804.52;1597037;87;25779;-81
2021/09/05 10:01:31;;;;;;;;;;;;;;;16.32;54.69;101808.49;1554469;90;25906;-81
2021/09/05 10:04:01;;;;;;;0.55;0.50;;;;;;;16.33;53.92;101806.13;1563141;90;27134;-81
2021/09/05 10:06:33;;;;;;;1.20;0.60;;;;;;;16.18;53.20;101803.50;1608551;88;25368;-81
2021/09/05 10:09:06;;;;;;;1.32;0.60;;;;;;;16.04;53.32;101803.88;1576117;88;25841;-81
2021/09/05 10:11:36;;;;;;;1.98;0.50;;;;;;;15.96;54.12;101797.27;1564674;89;26592;-81
2021/09/05 10:14:04;;;;;;;2.08;0.60;;;;;;;16.03;54.96;101798.17;1599275;87;25970;-81
2021/09/05 10:16:32;;;;;;;2.58;0.70;;;;;;;16.15;54.04;101791.20;1639255;86;27506;-81
2021/09/05 10:19:05;;;;;;;1.55;0.50;;;;;;;16.26;54.12;101800.66;1603388;86;25978;-82
2021/09/05 10:21:34;;;;;;;1.77;0.50;;;;;;;16.33;53.28;101804.27;1622807;87;26405;-81
2021/09/05 10:24:02;;;;;;;0.60;0.40;;;;;;;16.30;53.95;101803.29;1597518;88;26032;-81
2021/09/05 10:26:30;;;;;;;1.42;0.65;;;;;;;16.33;53.62;101802.06;1601153;88;25850;-80
2021/09/05 10:29:01;;;;;;;0.80;0.60;;;;;;;16.41;53.70;101792.45;1616540;86;27669;-81
2021/09/05 10:31:32;;;;;;;1.35;0.50;;;;;;;16.36;53.09;101799.80;1600194;86;25929;-80
2021/09/05 10:33:59;;;;;;;1.95;0.68;;;;;;;16.30;52.86;101800.58;1635451;86;26010;-80
2021/09/05 10:36:28;;;;;;;0.70;0.47;;;;;;;16.35;54.21;101800.00;1639947;86;27055;-80
2021/09/05 10:39:08;;;;;;;1.20;0.55;;;;;;;16.40;52.83;101798.91;1582268;86;26381;-79
2021/09/05 10:41:52;;;;;;;0.85;0.50;;;;;;;16.47;53.75;101799.27;1595620;87;27440;-80
2021/09/05 10:44:19;;;;;;;1.35;0.70;;;;;;;16.63;53.44;101800.89;1649353;86;25989;-80
2021/09/05 10:46:52;;;;;;;0.50;0.37;;;;;;;16.75;53.23;101795.23;1643259;86;26021;-80
2021/09/05 10:49:38;;;;;;;0.75;0.50;;;;;;;16.73;51.69;101808.98;1599727;87;25906;-80
2021/09/05 10:52:06;;;;;;;0.72;0.50;;;;;;;16.62;51.36;101803.26;1581613;87;26925;-80
2021/09/05 10:54:48;;;;;;;0.68;0.50;;;;;;;16.54;51.36;101798.84;1644590;86;27550;-80
2021/09/05 10:57:32;;;;;;;1.17;0.62;;;;;;;16.61;51.72;101795.69;1644580;86;26189;-80
2021/09/05 11:00:10;;;;;;;1.45;0.72;;;;;;;16.74;50.06;101800.34;1604808;87;25962;-80
2021/09/05 11:03:08;;;;;;;1.15;0.50;;;;;;;16.89;51.10;101793.77;1608132;86;26682;-80
2021/09/05 11:05:36;;;;;;;3.70;0.80;;;;;;;17.10;51.94;101795.57;1643920;86;25857;-80
2021/09/05 11:08:23;;;;;;;1.52;0.70;;;;;;;17.22;51.63;101791.76;1649062;86;28283;-80
2021/09/05 11:10:52;;;;;;;2.08;0.65;;;;;;;17.38;51.56;101798.20;1616447;86;26553;-80
2021/09/05 11:13:49;;;;;;;1.00;0.70;;;;;;;17.53;49.83;101800.27;1608286;86;25958;-80
2021/09/05 11:16:17;;;;;;;1.70;0.82;;;;;;;17.62;49.08;101800.42;1646495;86;26800;-80
2021/09/05 11:18:46;;;;;;;1.52;0.65;;;;;;;17.54;49.11;101799.22;1650955;86;27304;-80
2021/09/05 11:21:25;;;;;;;1.62;0.80;;;;;;;17.39;48.70;101802.05;1602087;86;28314;-80
2021/09/05 11:23:52;;;;;;;0.75;0.50;;;;;;;17.25;49.22;101806.27;1605582;87;25383;-80
2021/09/05 11:26:19;;;;;;;1.70;0.60;;;;;;;17.03;49.53;101807.38;1627014;86;25369;-80
2021/09/05 11:28:50;;;;;;;0.85;0.65;;;;;;;16.86;49.29;101817.19;1653319;86;26528;-81
2021/09/05 11:31:18;;;;;;;1.30;0.40;;;;;;;16.71;49.70;101815.11;1598175;86;26095;-80
2021/09/05 11:33:45;;;;;;;2.77;1.15;;;;;;;16.53;50.11;101813.93;1593863;88;27445;-81
2021/09/05 11:36:13;;;;;;;1.27;0.72;;;;;;;16.45;51.03;101816.21;1634764;86;26014;-81
2021/09/05 11:38:41;;;;;;;0.57;0.45;;;;;;;16.45;50.75;101814.02;1634212;87;25896;-81
2021/09/05 11:41:08;;;;;;;0.85;0.50;;;;;;;16.51;51.36;101814.11;1555591;88;25590;-81
2021/09/05 11:43:40;;;;;;;1.37;0.75;;;;;;;16.67;50.70;101817.89;1559618;88;25869;-81
2021/09/05 11:46:18;;;;;;;1.10;0.70;;;;;;;16.79;48.66;101807.34;1616752;87;28679;-81
2021/09/05 11:49:00;;;;;;;3.67;1.22;;;;;;;16.94;48.81;101810.26;1638429;86;25858;-81
2021/09/05 11:51:35;;;;;;;1.85;0.75;;;;;;;17.11;49.26;101800.48;1609677;86;25949;-80